sensor_id;sensor_type;location;lat;lon;timestamp;temperature;humidity
12811;DHT22;6470;47.654;7.896;2023-08-30T00:01:14;12.30;99.90
12811;DHT22;6470;47.654;7.896;2023-08-30T00:03:39;12.80;99.90
12811;DHT22;6470;47.654;7.896;2023-08-30T00:06:06;12.30;99.90
12811;DHT22;6470;47.654;7.896;2023-08-30T00:08:33;12.50;99.90
12811;DHT22;6470;47.654;7.896;2023-08-30T00:10:59;11.60;99.90
12811;DHT22;6470;47.654;7.896;2023-08-30T00:13:25;10.10;99.90
12811;DHT22;6470;47.654;7.896;2023-08-30T00:15:51;11.80;99.90
12811;DHT22;6470;47.654;7.896;2023-08-30T00:18:17;11.60;99.90
12811;DHT22;6470;47.654;7.896;2023-08-30T00:20:44;10.10;99.90
12811;DHT22;6470;47.654;7.896;2023-08-30T00:23:10;12.30;99.90
12811;DHT22;6470;47.654;7.896;2023-08-30T00:25:36;11.80;99.90
12811;DHT22;6470;47.654;7.896;2023-08-30T00:28:01;12.40;99.90
12811;DHT22;6470;47.654;7.896;2023-08-30T00:30:27;12.70;99.90
12811;DHT22;6470;47.654;7.896;2023-08-30T00:35:19;12.80;99.90
12811;DHT22;6470;47.654;7.896;2023-08-30T00:37:44;11.90;99.90
12811;DHT22;6470;47.654;7.896;2023-08-30T00:40:10;11.90;99.90
12811;DHT22;6470;47.654;7.896;2023-08-30T00:42:36;12.20;99.90
12811;DHT22;6470;47.654;7.896;2023-08-30T00:45:03;12.20;99.90
12811;DHT22;6470;47.654;7.896;2023-08-30T00:47:29;11.80;99.90
12811;DHT22;6470;47.654;7.896;2023-08-30T00:52:21;11.70;99.90
12811;DHT22;6470;47.654;7.896;2023-08-30T00:54:46;11.70;99.90
12811;DHT22;6470;47.654;7.896;2023-08-30T00:57:12;12.50;99.90
12811;DHT22;6470;47.654;7.896;2023-08-30T00:59:38;11.70;99.90
12811;DHT22;6470;47.654;7.896;2023-08-30T01:02:04;12.50;99.90
12811;DHT22;6470;47.654;7.896;2023-08-30T01:04:30;11.90;99.90
12811;DHT22;6470;47.654;7.896;2023-08-30T01:06:56;12.80;99.90
12811;DHT22;6470;47.654;7.896;2023-08-30T01:09:22;12.10;99.90
12811;DHT22;6470;47.654;7.896;2023-08-30T01:12:00;12.70;99.90
12811;DHT22;6470;47.654;7.896;2023-08-30T01:14:34;11.50;99.90
12811;DHT22;6470;47.654;7.896;2023-08-30T01:17:04;12.50;99.90
12811;DHT22;6470;47.654;7.896;2023-08-30T01:27:41;11.40;99.90
12811;DHT22;6470;47.654;7.896;2023-08-30T01:30:09;12.60;99.90
12811;DHT22;6470;47.654;7.896;2023-08-30T01:32:37;12.40;99.90
12811;DHT22;6470;47.654;7.896;2023-08-30T01:35:04;10.30;99.90
12811;DHT22;6470;47.654;7.896;2023-08-30T01:37:31;12.00;99.90
12811;DHT22;6470;47.654;7.896;2023-08-30T01:39:58;12.50;99.90
12811;DHT22;6470;47.654;7.896;2023-08-30T01:42:27;12.40;99.90
12811;DHT22;6470;47.654;7.896;2023-08-30T01:44:55;11.30;99.90
12811;DHT22;6470;47.654;7.896;2023-08-30T01:47:26;11.30;99.90
12811;DHT22;6470;47.654;7.896;2023-08-30T01:49:54;12.40;99.90
12811;DHT22;6470;47.654;7.896;2023-08-30T01:52:20;10.10;99.90
12811;DHT22;6470;47.654;7.896;2023-08-30T01:54:47;11.40;99.90
12811;DHT22;6470;47.654;7.896;2023-08-30T01:57:13;12.20;99.90
12811;DHT22;6470;47.654;7.896;2023-08-30T02:04:31;12.10;99.90
12811;DHT22;6470;47.654;7.896;2023-08-30T02:07:04;11.30;99.90
12811;DHT22;6470;47.654;7.896;2023-08-30T02:12:04;12.50;99.90
12811;DHT22;6470;47.654;7.896;2023-08-30T02:14:33;12.00;99.90
12811;DHT22;6470;47.654;7.896;2023-08-30T02:17:00;12.30;99.90
12811;DHT22;6470;47.654;7.896;2023-08-30T02:19:26;12.50;99.90
12811;DHT22;6470;47.654;7.896;2023-08-30T02:21:52;12.30;99.90
12811;DHT22;6470;47.654;7.896;2023-08-30T02:24:18;11.30;99.90
12811;DHT22;6470;47.654;7.896;2023-08-30T02:26:44;12.40;99.90
12811;DHT22;6470;47.654;7.896;2023-08-30T02:29:09;12.00;99.90
12811;DHT22;6470;47.654;7.896;2023-08-30T02:31:35;12.10;99.90
12811;DHT22;6470;47.654;7.896;2023-08-30T02:34:01;11.80;99.90
12811;DHT22;6470;47.654;7.896;2023-08-30T02:36:27;12.30;99.90
12811;DHT22;6470;47.654;7.896;2023-08-30T02:38:53;10.00;99.90
12811;DHT22;6470;47.654;7.896;2023-08-30T02:41:19;12.00;99.90
12811;DHT22;6470;47.654;7.896;2023-08-30T02:43:44;10.10;99.90
12811;DHT22;6470;47.654;7.896;2023-08-30T02:46:10;12.00;99.90
12811;DHT22;6470;47.654;7.896;2023-08-30T02:48:36;11.40;99.90
12811;DHT22;6470;47.654;7.896;2023-08-30T02:51:01;11.40;99.90
12811;DHT22;6470;47.654;7.896;2023-08-30T02:53:27;11.90;99.90
12811;DHT22;6470;47.654;7.896;2023-08-30T02:55:53;12.30;99.90
12811;DHT22;6470;47.654;7.896;2023-08-30T02:58:21;12.10;99.90
12811;DHT22;6470;47.654;7.896;2023-08-30T03:00:47;12.50;99.90
12811;DHT22;6470;47.654;7.896;2023-08-30T03:03:12;11.40;99.90
12811;DHT22;6470;47.654;7.896;2023-08-30T03:05:38;11.40;99.90
12811;DHT22;6470;47.654;7.896;2023-08-30T03:08:04;12.20;99.90
12811;DHT22;6470;47.654;7.896;2023-08-30T03:10:30;12.70;99.90
12811;DHT22;6470;47.654;7.896;2023-08-30T03:15:21;12.00;99.90
12811;DHT22;6470;47.654;7.896;2023-08-30T03:17:47;12.50;99.90
12811;DHT22;6470;47.654;7.896;2023-08-30T03:20:13;11.40;99.90
12811;DHT22;6470;47.654;7.896;2023-08-30T03:22:39;12.10;99.90
12811;DHT22;6470;47.654;7.896;2023-08-30T03:25:05;12.90;99.90
12811;DHT22;6470;47.654;7.896;2023-08-30T03:27:32;12.40;99.90
12811;DHT22;6470;47.654;7.896;2023-08-30T03:29:58;12.50;99.90
12811;DHT22;6470;47.654;7.896;2023-08-30T03:32:24;12.60;99.90
12811;DHT22;6470;47.654;7.896;2023-08-30T03:34:49;12.60;99.90
12811;DHT22;6470;47.654;7.896;2023-08-30T03:39:42;12.10;99.90
12811;DHT22;6470;47.654;7.896;2023-08-30T03:42:08;11.30;99.90
12811;DHT22;6470;47.654;7.896;2023-08-30T03:44:34;11.30;99.90
12811;DHT22;6470;47.654;7.896;2023-08-30T03:46:59;12.90;99.90
12811;DHT22;6470;47.654;7.896;2023-08-30T03:49:25;12.50;99.90
12811;DHT22;6470;47.654;7.896;2023-08-30T03:54:17;12.90;99.90
12811;DHT22;6470;47.654;7.896;2023-08-30T03:56:43;12.30;99.90
12811;DHT22;6470;47.654;7.896;2023-08-30T03:59:10;10.80;99.90
12811;DHT22;6470;47.654;7.896;2023-08-30T04:01:35;11.70;99.90
12811;DHT22;6470;47.654;7.896;2023-08-30T04:04:01;12.10;99.90
12811;DHT22;6470;47.654;7.896;2023-08-30T04:06:27;11.30;99.90
12811;DHT22;6470;47.654;7.896;2023-08-30T04:08:52;11.30;99.90
12811;DHT22;6470;47.654;7.896;2023-08-30T04:11:18;11.30;99.90
12811;DHT22;6470;47.654;7.896;2023-08-30T04:13:44;11.30;99.90
12811;DHT22;6470;47.654;7.896;2023-08-30T04:16:10;11.30;99.90
12811;DHT22;6470;47.654;7.896;2023-08-30T04:23:29;11.50;99.90
12811;DHT22;6470;47.654;7.896;2023-08-30T04:25:55;11.50;99.90
12811;DHT22;6470;47.654;7.896;2023-08-30T04:28:21;11.70;99.90
12811;DHT22;6470;47.654;7.896;2023-08-30T04:30:47;11.90;99.90
12811;DHT22;6470;47.654;7.896;2023-08-30T04:33:13;12.30;99.90
12811;DHT22;6470;47.654;7.896;2023-08-30T04:35:39;12.50;99.90
12811;DHT22;6470;47.654;7.896;2023-08-30T04:38:05;12.40;99.90
12811;DHT22;6470;47.654;7.896;2023-08-30T04:40:31;12.40;99.90
12811;DHT22;6470;47.654;7.896;2023-08-30T04:42:58;12.20;99.90
12811;DHT22;6470;47.654;7.896;2023-08-30T04:45:24;12.10;99.90
12811;DHT22;6470;47.654;7.896;2023-08-30T04:50:16;12.10;99.90
12811;DHT22;6470;47.654;7.896;2023-08-30T04:52:43;15.80;99.90
12811;DHT22;6470;47.654;7.896;2023-08-30T04:55:09;11.40;99.90
12811;DHT22;6470;47.654;7.896;2023-08-30T04:57:36;15.40;99.90
12811;DHT22;6470;47.654;7.896;2023-08-30T05:02:30;12.50;99.90
12811;DHT22;6470;47.654;7.896;2023-08-30T05:09:48;12.70;99.90
12811;DHT22;6470;47.654;7.896;2023-08-30T05:12:14;12.10;99.90
12811;DHT22;6470;47.654;7.896;2023-08-30T05:14:39;12.50;99.90
12811;DHT22;6470;47.654;7.896;2023-08-30T05:19:33;12.60;99.90
12811;DHT22;6470;47.654;7.896;2023-08-30T05:24:24;11.70;99.90
12811;DHT22;6470;47.654;7.896;2023-08-30T05:26:52;13.00;99.90
12811;DHT22;6470;47.654;7.896;2023-08-30T05:29:18;12.70;99.90
12811;DHT22;6470;47.654;7.896;2023-08-30T05:31:43;11.80;99.90
12811;DHT22;6470;47.654;7.896;2023-08-30T05:34:10;11.90;99.90
12811;DHT22;6470;47.654;7.896;2023-08-30T05:36:36;15.40;99.90
12811;DHT22;6470;47.654;7.896;2023-08-30T05:41:29;15.60;99.90
12811;DHT22;6470;47.654;7.896;2023-08-30T05:46:21;12.30;99.90
12811;DHT22;6470;47.654;7.896;2023-08-30T05:48:47;15.30;99.90
12811;DHT22;6470;47.654;7.896;2023-08-30T05:51:12;15.30;99.90
12811;DHT22;6470;47.654;7.896;2023-08-30T05:53:38;12.50;99.90
12811;DHT22;6470;47.654;7.896;2023-08-30T05:56:04;10.20;99.90
12811;DHT22;6470;47.654;7.896;2023-08-30T05:58:30;15.70;99.90
12811;DHT22;6470;47.654;7.896;2023-08-30T06:00:56;14.90;99.90
12811;DHT22;6470;47.654;7.896;2023-08-30T06:03:22;15.40;99.90
12811;DHT22;6470;47.654;7.896;2023-08-30T06:05:48;15.30;99.90
12811;DHT22;6470;47.654;7.896;2023-08-30T06:10:40;15.80;99.90
12811;DHT22;6470;47.654;7.896;2023-08-30T06:13:06;15.00;99.90
12811;DHT22;6470;47.654;7.896;2023-08-30T06:15:32;15.30;99.90
12811;DHT22;6470;47.654;7.896;2023-08-30T06:17:58;15.90;99.90
12811;DHT22;6470;47.654;7.896;2023-08-30T06:20:24;15.60;99.90
12811;DHT22;6470;47.654;7.896;2023-08-30T06:22:50;15.70;99.90
12811;DHT22;6470;47.654;7.896;2023-08-30T06:25:16;14.90;99.90
12811;DHT22;6470;47.654;7.896;2023-08-30T06:27:42;15.00;99.90
12811;DHT22;6470;47.654;7.896;2023-08-30T06:30:10;15.50;99.90
12811;DHT22;6470;47.654;7.896;2023-08-30T06:32:36;15.30;99.90
12811;DHT22;6470;47.654;7.896;2023-08-30T06:35:01;15.30;99.90
12811;DHT22;6470;47.654;7.896;2023-08-30T06:37:28;15.20;99.90
12811;DHT22;6470;47.654;7.896;2023-08-30T06:39:53;15.20;99.90
12811;DHT22;6470;47.654;7.896;2023-08-30T06:42:19;15.80;99.90
12811;DHT22;6470;47.654;7.896;2023-08-30T06:44:45;15.50;99.90
12811;DHT22;6470;47.654;7.896;2023-08-30T06:47:10;11.30;99.90
12811;DHT22;6470;47.654;7.896;2023-08-30T06:49:36;15.60;99.90
12811;DHT22;6470;47.654;7.896;2023-08-30T06:52:02;11.60;99.90
12811;DHT22;6470;47.654;7.896;2023-08-30T06:54:32;15.80;99.90
12811;DHT22;6470;47.654;7.896;2023-08-30T06:57:01;16.00;99.90
12811;DHT22;6470;47.654;7.896;2023-08-30T06:59:27;15.60;99.90
12811;DHT22;6470;47.654;7.896;2023-08-30T07:01:53;15.90;99.90
12811;DHT22;6470;47.654;7.896;2023-08-30T07:04:19;16.00;99.90
12811;DHT22;6470;47.654;7.896;2023-08-30T07:09:11;15.50;99.90
12811;DHT22;6470;47.654;7.896;2023-08-30T07:11:38;15.80;99.90
12811;DHT22;6470;47.654;7.896;2023-08-30T07:14:04;14.90;99.90
12811;DHT22;6470;47.654;7.896;2023-08-30T07:16:30;14.50;99.90
12811;DHT22;6470;47.654;7.896;2023-08-30T07:18:59;16.10;99.90
12811;DHT22;6470;47.654;7.896;2023-08-30T07:26:17;14.20;99.90
12811;DHT22;6470;47.654;7.896;2023-08-30T07:28:43;15.70;99.90
12811;DHT22;6470;47.654;7.896;2023-08-30T07:31:09;14.60;99.90
12811;DHT22;6470;47.654;7.896;2023-08-30T07:33:35;15.30;99.90
12811;DHT22;6470;47.654;7.896;2023-08-30T07:40:54;15.80;99.90
12811;DHT22;6470;47.654;7.896;2023-08-30T07:48:12;15.60;99.90
12811;DHT22;6470;47.654;7.896;2023-08-30T07:50:38;16.10;99.90
12811;DHT22;6470;47.654;7.896;2023-08-30T07:53:04;16.20;99.90
12811;DHT22;6470;47.654;7.896;2023-08-30T07:55:29;15.90;99.90
12811;DHT22;6470;47.654;7.896;2023-08-30T07:57:55;15.50;99.90
12811;DHT22;6470;47.654;7.896;2023-08-30T08:00:21;16.10;99.90
12811;DHT22;6470;47.654;7.896;2023-08-30T08:02:46;16.80;99.90
12811;DHT22;6470;47.654;7.896;2023-08-30T08:05:12;17.00;99.90
12811;DHT22;6470;47.654;7.896;2023-08-30T08:07:39;16.40;99.90
12811;DHT22;6470;47.654;7.896;2023-08-30T08:10:06;16.80;99.90
12811;DHT22;6470;47.654;7.896;2023-08-30T08:12:33;16.80;99.90
12811;DHT22;6470;47.654;7.896;2023-08-30T08:14:58;14.20;99.90
12811;DHT22;6470;47.654;7.896;2023-08-30T08:17:24;17.40;99.90
12811;DHT22;6470;47.654;7.896;2023-08-30T08:19:50;17.10;99.90
12811;DHT22;6470;47.654;7.896;2023-08-30T08:24:42;17.30;99.90
12811;DHT22;6470;47.654;7.896;2023-08-30T08:27:09;17.00;99.90
12811;DHT22;6470;47.654;7.896;2023-08-30T08:29:35;17.50;99.90
12811;DHT22;6470;47.654;7.896;2023-08-30T08:32:00;17.70;99.90
12811;DHT22;6470;47.654;7.896;2023-08-30T08:34:26;17.90;99.90
12811;DHT22;6470;47.654;7.896;2023-08-30T08:36:52;16.80;99.90
12811;DHT22;6470;47.654;7.896;2023-08-30T08:39:17;17.90;99.90
12811;DHT22;6470;47.654;7.896;2023-08-30T08:41:44;17.30;99.90
12811;DHT22;6470;47.654;7.896;2023-08-30T08:44:11;17.70;99.90
12811;DHT22;6470;47.654;7.896;2023-08-30T08:46:39;17.70;99.90
12811;DHT22;6470;47.654;7.896;2023-08-30T08:49:13;17.70;99.90
12811;DHT22;6470;47.654;7.896;2023-08-30T08:51:40;17.80;99.90
12811;DHT22;6470;47.654;7.896;2023-08-30T08:54:06;17.90;99.90
12811;DHT22;6470;47.654;7.896;2023-08-30T08:56:32;18.00;99.90
12811;DHT22;6470;47.654;7.896;2023-08-30T09:01:27;18.20;99.90
12811;DHT22;6470;47.654;7.896;2023-08-30T09:03:53;17.80;99.90
12811;DHT22;6470;47.654;7.896;2023-08-30T09:06:19;17.60;99.90
12811;DHT22;6470;47.654;7.896;2023-08-30T09:08:45;17.30;99.90
12811;DHT22;6470;47.654;7.896;2023-08-30T09:11:11;17.30;99.90
12811;DHT22;6470;47.654;7.896;2023-08-30T09:13:36;17.80;99.90
12811;DHT22;6470;47.654;7.896;2023-08-30T09:16:02;17.70;99.90
12811;DHT22;6470;47.654;7.896;2023-08-30T09:18:28;15.10;99.90
12811;DHT22;6470;47.654;7.896;2023-08-30T09:21:10;17.50;99.90
12811;DHT22;6470;47.654;7.896;2023-08-30T09:23:37;18.50;99.90
12811;DHT22;6470;47.654;7.896;2023-08-30T09:28:29;18.50;99.90
12811;DHT22;6470;47.654;7.896;2023-08-30T09:30:58;19.40;99.90
12811;DHT22;6470;47.654;7.896;2023-08-30T09:33:32;19.20;99.90
12811;DHT22;6470;47.654;7.896;2023-08-30T09:35:58;19.30;99.90
12811;DHT22;6470;47.654;7.896;2023-08-30T09:38:25;19.50;99.90
12811;DHT22;6470;47.654;7.896;2023-08-30T09:40:51;16.20;99.90
12811;DHT22;6470;47.654;7.896;2023-08-30T09:43:20;18.90;99.90
12811;DHT22;6470;47.654;7.896;2023-08-30T09:45:52;18.90;99.90
12811;DHT22;6470;47.654;7.896;2023-08-30T09:48:28;17.90;99.90
12811;DHT22;6470;47.654;7.896;2023-08-30T09:50:54;15.10;99.90
12811;DHT22;6470;47.654;7.896;2023-08-30T09:53:25;18.80;99.90
12811;DHT22;6470;47.654;7.896;2023-08-30T09:55:55;19.40;99.90
12811;DHT22;6470;47.654;7.896;2023-08-30T09:58:21;18.80;99.90
12811;DHT22;6470;47.654;7.896;2023-08-30T10:00:51;19.40;99.90
12811;DHT22;6470;47.654;7.896;2023-08-30T10:03:17;19.00;99.90
12811;DHT22;6470;47.654;7.896;2023-08-30T10:05:44;18.50;99.90
12811;DHT22;6470;47.654;7.896;2023-08-30T10:08:12;18.70;99.90
12811;DHT22;6470;47.654;7.896;2023-08-30T10:10:39;18.30;99.90
12811;DHT22;6470;47.654;7.896;2023-08-30T10:13:05;18.70;99.90
12811;DHT22;6470;47.654;7.896;2023-08-30T10:15:33;18.80;99.90
12811;DHT22;6470;47.654;7.896;2023-08-30T10:18:01;18.20;99.90
12811;DHT22;6470;47.654;7.896;2023-08-30T10:20:28;17.90;99.90
12811;DHT22;6470;47.654;7.896;2023-08-30T10:22:56;18.40;99.90
12811;DHT22;6470;47.654;7.896;2023-08-30T10:25:26;18.80;99.90
12811;DHT22;6470;47.654;7.896;2023-08-30T10:27:52;18.90;99.90
12811;DHT22;6470;47.654;7.896;2023-08-30T10:30:21;18.70;99.90
12811;DHT22;6470;47.654;7.896;2023-08-30T10:35:14;18.60;99.90
12811;DHT22;6470;47.654;7.896;2023-08-30T10:37:40;18.40;99.90
12811;DHT22;6470;47.654;7.896;2023-08-30T10:40:07;19.20;99.90
12811;DHT22;6470;47.654;7.896;2023-08-30T10:45:00;19.00;99.90
12811;DHT22;6470;47.654;7.896;2023-08-30T10:47:31;18.90;99.90
12811;DHT22;6470;47.654;7.896;2023-08-30T10:49:59;18.40;99.90
12811;DHT22;6470;47.654;7.896;2023-08-30T10:52:26;20.20;99.90
12811;DHT22;6470;47.654;7.896;2023-08-30T10:57:23;20.60;99.90
12811;DHT22;6470;47.654;7.896;2023-08-30T11:00:28;20.30;99.90
12811;DHT22;6470;47.654;7.896;2023-08-30T11:02:55;20.40;99.90
12811;DHT22;6470;47.654;7.896;2023-08-30T11:05:22;17.00;99.90
12811;DHT22;6470;47.654;7.896;2023-08-30T11:07:49;20.00;99.90
12811;DHT22;6470;47.654;7.896;2023-08-30T11:10:17;19.50;99.90
12811;DHT22;6470;47.654;7.896;2023-08-30T11:12:44;20.40;99.90
12811;DHT22;6470;47.654;7.896;2023-08-30T11:15:11;19.90;99.90
12811;DHT22;6470;47.654;7.896;2023-08-30T11:17:39;19.90;99.90
12811;DHT22;6470;47.654;7.896;2023-08-30T11:20:07;20.70;99.90
12811;DHT22;6470;47.654;7.896;2023-08-30T11:22:36;20.20;99.90
12811;DHT22;6470;47.654;7.896;2023-08-30T11:25:02;19.90;99.90
12811;DHT22;6470;47.654;7.896;2023-08-30T11:27:29;17.40;99.90
12811;DHT22;6470;47.654;7.896;2023-08-30T11:29:59;20.80;99.90
12811;DHT22;6470;47.654;7.896;2023-08-30T11:32:26;21.50;99.90
12811;DHT22;6470;47.654;7.896;2023-08-30T11:34:57;21.70;99.90
12811;DHT22;6470;47.654;7.896;2023-08-30T11:37:27;21.70;99.90
12811;DHT22;6470;47.654;7.896;2023-08-30T11:39:54;21.70;99.90
12811;DHT22;6470;47.654;7.896;2023-08-30T11:42:21;21.60;99.90
12811;DHT22;6470;47.654;7.896;2023-08-30T11:44:47;21.20;99.90
12811;DHT22;6470;47.654;7.896;2023-08-30T11:47:24;22.30;99.90
12811;DHT22;6470;47.654;7.896;2023-08-30T11:49:52;21.70;99.90
12811;DHT22;6470;47.654;7.896;2023-08-30T11:52:19;21.60;99.90
12811;DHT22;6470;47.654;7.896;2023-08-30T11:54:47;21.60;99.90
12811;DHT22;6470;47.654;7.896;2023-08-30T11:57:13;21.50;99.90
12811;DHT22;6470;47.654;7.896;2023-08-30T11:59:39;21.50;99.90
12811;DHT22;6470;47.654;7.896;2023-08-30T12:02:05;22.50;99.90
12811;DHT22;6470;47.654;7.896;2023-08-30T12:04:32;22.70;99.90
12811;DHT22;6470;47.654;7.896;2023-08-30T12:06:57;22.10;99.90
12811;DHT22;6470;47.654;7.896;2023-08-30T12:09:30;22.00;99.90
12811;DHT22;6470;47.654;7.896;2023-08-30T12:12:05;22.40;99.90
12811;DHT22;6470;47.654;7.896;2023-08-30T12:14:35;22.20;99.90
12811;DHT22;6470;47.654;7.896;2023-08-30T12:17:01;22.60;99.90
12811;DHT22;6470;47.654;7.896;2023-08-30T12:19:28;22.90;99.90
12811;DHT22;6470;47.654;7.896;2023-08-30T12:21:54;22.50;99.90
12811;DHT22;6470;47.654;7.896;2023-08-30T12:26:48;23.10;99.90
12811;DHT22;6470;47.654;7.896;2023-08-30T12:29:14;21.70;99.90
12811;DHT22;6470;47.654;7.896;2023-08-30T12:31:39;21.30;99.90
12811;DHT22;6470;47.654;7.896;2023-08-30T12:34:05;22.10;99.90
12811;DHT22;6470;47.654;7.896;2023-08-30T12:38:57;22.80;99.90
12811;DHT22;6470;47.654;7.896;2023-08-30T12:41:23;22.60;99.90
12811;DHT22;6470;47.654;7.896;2023-08-30T12:43:49;22.50;99.90
12811;DHT22;6470;47.654;7.896;2023-08-30T12:46:16;22.10;99.90
12811;DHT22;6470;47.654;7.896;2023-08-30T12:48:42;22.20;99.90
12811;DHT22;6470;47.654;7.896;2023-08-30T12:51:08;21.80;99.90
12811;DHT22;6470;47.654;7.896;2023-08-30T12:53:33;22.40;99.90
12811;DHT22;6470;47.654;7.896;2023-08-30T12:55:59;22.30;99.90
12811;DHT22;6470;47.654;7.896;2023-08-30T12:58:25;22.80;99.90
12811;DHT22;6470;47.654;7.896;2023-08-30T13:00:50;22.50;99.90
12811;DHT22;6470;47.654;7.896;2023-08-30T13:03:16;21.80;99.90
12811;DHT22;6470;47.654;7.896;2023-08-30T13:05:42;21.90;99.90
12811;DHT22;6470;47.654;7.896;2023-08-30T13:08:07;21.10;99.90
12811;DHT22;6470;47.654;7.896;2023-08-30T13:12:59;21.00;99.90
12811;DHT22;6470;47.654;7.896;2023-08-30T13:15:25;20.40;99.90
12811;DHT22;6470;47.654;7.896;2023-08-30T13:17:50;20.60;99.90
12811;DHT22;6470;47.654;7.896;2023-08-30T13:20:18;21.50;99.90
12811;DHT22;6470;47.654;7.896;2023-08-30T13:22:43;22.00;99.90
12811;DHT22;6470;47.654;7.896;2023-08-30T13:25:09;22.60;99.90
12811;DHT22;6470;47.654;7.896;2023-08-30T13:27:35;22.90;99.90
12811;DHT22;6470;47.654;7.896;2023-08-30T13:30:00;22.50;99.90
12811;DHT22;6470;47.654;7.896;2023-08-30T13:32:26;22.20;99.90
12811;DHT22;6470;47.654;7.896;2023-08-30T13:34:52;22.90;99.90
12811;DHT22;6470;47.654;7.896;2023-08-30T13:37:18;22.60;99.90
12811;DHT22;6470;47.654;7.896;2023-08-30T13:42:11;23.10;99.90
12811;DHT22;6470;47.654;7.896;2023-08-30T13:44:37;22.90;99.90
12811;DHT22;6470;47.654;7.896;2023-08-30T13:47:04;23.50;99.90
12811;DHT22;6470;47.654;7.896;2023-08-30T13:49:30;23.00;99.90
12811;DHT22;6470;47.654;7.896;2023-08-30T13:51:56;22.30;99.90
12811;DHT22;6470;47.654;7.896;2023-08-30T13:56:48;22.10;99.90
12811;DHT22;6470;47.654;7.896;2023-08-30T13:59:14;22.00;99.90
12811;DHT22;6470;47.654;7.896;2023-08-30T14:01:41;21.90;99.90
12811;DHT22;6470;47.654;7.896;2023-08-30T14:04:08;22.90;99.90
12811;DHT22;6470;47.654;7.896;2023-08-30T14:06:34;22.80;99.90
12811;DHT22;6470;47.654;7.896;2023-08-30T14:09:00;22.80;99.90
12811;DHT22;6470;47.654;7.896;2023-08-30T14:11:26;22.50;99.90
12811;DHT22;6470;47.654;7.896;2023-08-30T14:13:51;22.90;99.90
12811;DHT22;6470;47.654;7.896;2023-08-30T14:16:17;22.40;99.90
12811;DHT22;6470;47.654;7.896;2023-08-30T14:18:43;22.40;99.90
12811;DHT22;6470;47.654;7.896;2023-08-30T14:21:09;21.90;99.90
12811;DHT22;6470;47.654;7.896;2023-08-30T14:26:05;22.00;99.90
12811;DHT22;6470;47.654;7.896;2023-08-30T14:28:36;21.50;99.90
12811;DHT22;6470;47.654;7.896;2023-08-30T14:31:02;21.70;99.90
12811;DHT22;6470;47.654;7.896;2023-08-30T14:33:30;22.70;99.90
12811;DHT22;6470;47.654;7.896;2023-08-30T14:35:55;22.70;99.90
12811;DHT22;6470;47.654;7.896;2023-08-30T14:38:23;22.00;99.90
12811;DHT22;6470;47.654;7.896;2023-08-30T14:40:59;22.20;99.90
12811;DHT22;6470;47.654;7.896;2023-08-30T14:43:25;22.10;99.90
12811;DHT22;6470;47.654;7.896;2023-08-30T14:45:51;22.40;99.90
12811;DHT22;6470;47.654;7.896;2023-08-30T14:48:17;22.00;99.90
12811;DHT22;6470;47.654;7.896;2023-08-30T14:50:42;21.00;99.90
12811;DHT22;6470;47.654;7.896;2023-08-30T14:53:08;20.70;99.90
12811;DHT22;6470;47.654;7.896;2023-08-30T14:58:00;20.50;99.90
12811;DHT22;6470;47.654;7.896;2023-08-30T15:00:26;20.30;99.90
12811;DHT22;6470;47.654;7.896;2023-08-30T15:02:52;19.90;99.90
12811;DHT22;6470;47.654;7.896;2023-08-30T15:05:17;20.90;99.90
12811;DHT22;6470;47.654;7.896;2023-08-30T15:07:43;21.30;99.90
12811;DHT22;6470;47.654;7.896;2023-08-30T15:10:09;21.70;99.90
12811;DHT22;6470;47.654;7.896;2023-08-30T15:12:37;21.50;99.90
12811;DHT22;6470;47.654;7.896;2023-08-30T15:15:04;21.00;99.90
12811;DHT22;6470;47.654;7.896;2023-08-30T15:17:30;21.30;99.90
12811;DHT22;6470;47.654;7.896;2023-08-30T15:19:56;18.40;99.90
12811;DHT22;6470;47.654;7.896;2023-08-30T15:22:21;21.90;99.90
12811;DHT22;6470;47.654;7.896;2023-08-30T15:24:47;21.90;99.90
12811;DHT22;6470;47.654;7.896;2023-08-30T15:27:13;22.20;99.90
12811;DHT22;6470;47.654;7.896;2023-08-30T15:29:39;22.20;99.90
12811;DHT22;6470;47.654;7.896;2023-08-30T15:32:04;21.70;99.90
12811;DHT22;6470;47.654;7.896;2023-08-30T15:34:30;21.60;99.90
12811;DHT22;6470;47.654;7.896;2023-08-30T15:36:56;21.50;99.90
12811;DHT22;6470;47.654;7.896;2023-08-30T15:39:21;21.50;99.90
12811;DHT22;6470;47.654;7.896;2023-08-30T15:44:14;21.80;99.90
12811;DHT22;6470;47.654;7.896;2023-08-30T15:46:40;22.00;99.90
12811;DHT22;6470;47.654;7.896;2023-08-30T15:49:06;21.50;99.90
12811;DHT22;6470;47.654;7.896;2023-08-30T15:51:32;21.40;99.90
12811;DHT22;6470;47.654;7.896;2023-08-30T15:53:57;21.90;99.90
12811;DHT22;6470;47.654;7.896;2023-08-30T15:58:49;21.70;99.90
12811;DHT22;6470;47.654;7.896;2023-08-30T16:01:15;20.70;99.90
12811;DHT22;6470;47.654;7.896;2023-08-30T16:03:43;20.60;99.90
12811;DHT22;6470;47.654;7.896;2023-08-30T16:06:08;21.10;99.90
12811;DHT22;6470;47.654;7.896;2023-08-30T16:08:34;18.30;99.90
12811;DHT22;6470;47.654;7.896;2023-08-30T16:11:00;20.70;99.90
12811;DHT22;6470;47.654;7.896;2023-08-30T16:13:26;21.70;99.90
12811;DHT22;6470;47.654;7.896;2023-08-30T16:15:53;21.50;99.90
12811;DHT22;6470;47.654;7.896;2023-08-30T16:18:18;21.30;99.90
12811;DHT22;6470;47.654;7.896;2023-08-30T16:20:44;21.60;99.90
12811;DHT22;6470;47.654;7.896;2023-08-30T16:23:10;20.90;99.90
12811;DHT22;6470;47.654;7.896;2023-08-30T16:25:36;21.30;99.90
12811;DHT22;6470;47.654;7.896;2023-08-30T16:28:02;21.00;99.90
12811;DHT22;6470;47.654;7.896;2023-08-30T16:30:28;20.40;99.90
12811;DHT22;6470;47.654;7.896;2023-08-30T16:32:55;20.80;99.90
12811;DHT22;6470;47.654;7.896;2023-08-30T16:35:21;21.70;99.90
12811;DHT22;6470;47.654;7.896;2023-08-30T16:37:47;20.90;99.90
12811;DHT22;6470;47.654;7.896;2023-08-30T16:40:14;21.40;99.90
12811;DHT22;6470;47.654;7.896;2023-08-30T16:42:40;21.20;99.90
12811;DHT22;6470;47.654;7.896;2023-08-30T16:45:06;20.80;99.90
12811;DHT22;6470;47.654;7.896;2023-08-30T16:47:32;20.60;99.90
12811;DHT22;6470;47.654;7.896;2023-08-30T16:49:57;20.70;99.90
12811;DHT22;6470;47.654;7.896;2023-08-30T16:52:23;20.90;99.90
12811;DHT22;6470;47.654;7.896;2023-08-30T16:54:49;21.40;99.90
12811;DHT22;6470;47.654;7.896;2023-08-30T16:57:14;20.90;99.90
12811;DHT22;6470;47.654;7.896;2023-08-30T16:59:42;20.70;99.90
12811;DHT22;6470;47.654;7.896;2023-08-30T17:02:08;19.80;99.90
12811;DHT22;6470;47.654;7.896;2023-08-30T17:04:34;20.20;99.90
12811;DHT22;6470;47.654;7.896;2023-08-30T17:06:59;21.10;99.90
12811;DHT22;6470;47.654;7.896;2023-08-30T17:09:27;17.50;99.90
12811;DHT22;6470;47.654;7.896;2023-08-30T17:11:56;21.30;99.90
12811;DHT22;6470;47.654;7.896;2023-08-30T17:14:22;20.30;99.90
12811;DHT22;6470;47.654;7.896;2023-08-30T17:16:48;20.60;99.90
12811;DHT22;6470;47.654;7.896;2023-08-30T17:19:13;20.90;99.90
12811;DHT22;6470;47.654;7.896;2023-08-30T17:21:39;19.90;99.90
12811;DHT22;6470;47.654;7.896;2023-08-30T17:24:05;19.90;99.90
12811;DHT22;6470;47.654;7.896;2023-08-30T17:28:56;18.80;99.90
12811;DHT22;6470;47.654;7.896;2023-08-30T17:31:22;18.80;99.90